Time,TemperatureF,DewpointF,PressureIn,WindDirection,WindDirectionDegrees,WindSpeedMPH,WindSpeedGustMPH,Humidity,HourlyPrecipIn,Conditions,Clouds,dailyrainin,SoftwareType,DateUTC
2013-01-22 00:02:00,18.0,9.0,30.35,ESE,118,2.0,9.0,68,0.00,,,0.00,,2013-01-22 06:02:00,
2013-01-22 00:12:00,18.0,9.0,30.35,ESE,118,2.0,9.0,68,0.00,,,0.00,,2013-01-22 06:12:00,
2013-01-22 00:22:00,18.0,9.0,30.35,ESE,113,4.0,8.0,68,0.00,,,0.00,,2013-01-22 06:22:00,
2013-01-22 00:32:00,19.0,10.0,30.35,SE,139,3.0,7.0,68,0.00,,,0.00,,2013-01-22 06:32:00,
2013-01-22 00:42:00,19.0,10.0,30.35,SE,139,3.0,7.0,68,0.00,,,0.00,,2013-01-22 06:42:00,
2013-01-22 00:53:00,19.0,10.0,30.36,SE,137,3.0,7.0,68,0.00,,,0.00,,2013-01-22 06:53:00,
2013-01-22 01:02:00,19.0,10.0,30.36,ENE,70,6.0,6.0,68,0.00,,,0.00,,2013-01-22 07:02:00,
2013-01-22 01:12:00,19.0,10.0,30.36,ENE,70,6.0,6.0,68,0.00,,,0.00,,2013-01-22 07:12:00,
2013-01-22 01:22:00,19.0,11.0,30.36,East,89,0.0,9.0,69,0.00,,,0.00,,2013-01-22 07:22:00,
2013-01-22 01:32:00,18.0,10.0,30.35,NE,54,4.0,8.0,69,0.00,,,0.00,,2013-01-22 07:32:00,
2013-01-22 01:42:00,18.0,10.0,30.35,NE,54,4.0,8.0,69,0.00,,,0.00,,2013-01-22 07:42:00,
2013-01-22 01:53:00,18.0,10.0,30.36,ENE,63,3.0,8.0,70,0.00,,,0.00,,2013-01-22 07:53:00,
2013-01-22 02:02:00,18.0,10.0,30.37,East,101,2.0,6.0,71,0.00,,,0.00,,2013-01-22 08:02:00,
2013-01-22 02:12:00,18.0,10.0,30.37,East,101,2.0,6.0,71,0.00,,,0.00,,2013-01-22 08:12:00,
2013-01-22 02:22:00,18.0,11.0,30.36,ENE,78,3.0,5.0,72,0.00,,,0.00,,2013-01-22 08:22:00,
2013-01-22 02:32:00,18.0,11.0,30.36,SE,145,0.0,4.0,72,0.00,,,0.00,,2013-01-22 08:32:00,
2013-01-22 02:42:00,18.0,11.0,30.36,SE,145,0.0,4.0,72,0.00,,,0.00,,2013-01-22 08:42:00,
2013-01-22 02:52:00,17.0,10.0,30.36,SE,146,0.0,6.0,72,0.00,,,0.00,,2013-01-22 08:52:00,
2013-01-22 03:02:00,17.0,10.0,30.35,SE,146,0.0,5.0,73,0.00,,,0.00,,2013-01-22 09:02:00,
2013-01-22 03:12:00,17.0,10.0,30.35,SE,146,0.0,5.0,73,0.00,,,0.00,,2013-01-22 09:12:00,
2013-01-22 03:22:00,17.0,10.0,30.34,ESE,120,1.0,6.0,73,0.00,,,0.00,,2013-01-22 09:22:00,
2013-01-22 03:32:00,17.0,10.0,30.35,SSE,147,0.0,5.0,73,0.00,,,0.00,,2013-01-22 09:32:00,
2013-01-22 03:42:00,17.0,10.0,30.35,SSE,147,0.0,5.0,73,0.00,,,0.00,,2013-01-22 09:42:00,
2013-01-22 03:52:00,17.0,10.0,30.34,ESE,119,1.0,5.0,74,0.00,,,0.00,,2013-01-22 09:52:00,
2013-01-22 04:02:00,17.0,10.0,30.33,SSE,153,1.0,6.0,75,0.00,,,0.00,,2013-01-22 10:02:00,
2013-01-22 04:12:00,17.0,10.0,30.33,SSE,153,1.0,6.0,75,0.00,,,0.00,,2013-01-22 10:12:00,
2013-01-22 04:22:00,16.0,9.0,30.32,East,86,2.0,6.0,75,0.00,,,0.00,,2013-01-22 10:22:00,
2013-01-22 04:32:00,16.0,9.0,30.32,ESE,121,0.0,8.0,75,0.00,,,0.00,,2013-01-22 10:32:00,
2013-01-22 04:42:00,16.0,9.0,30.32,ESE,121,0.0,8.0,75,0.00,,,0.00,,2013-01-22 10:42:00,
2013-01-22 04:52:00,16.0,9.0,30.32,SE,129,1.0,5.0,75,0.00,,,0.00,,2013-01-22 10:52:00,
2013-01-22 05:02:00,16.0,9.0,30.31,SE,129,1.0,1.0,75,0.00,,,0.00,,2013-01-22 11:02:00,
2013-01-22 05:12:00,16.0,9.0,30.31,SE,129,1.0,1.0,75,0.00,,,0.00,,2013-01-22 11:12:00,
2013-01-22 05:22:00,16.0,9.0,30.30,SE,129,1.0,1.0,75,0.00,,,0.00,,2013-01-22 11:22:00,
2013-01-22 05:33:00,16.0,9.0,30.29,SE,129,1.0,1.0,75,0.00,,,0.00,,2013-01-22 11:33:00,
2013-01-22 05:42:00,16.0,9.0,30.29,SE,129,1.0,1.0,75,0.00,,,0.00,,2013-01-22 11:42:00,
2013-01-22 05:53:00,16.0,9.0,30.28,SE,129,1.0,1.0,75,0.00,,,0.00,,2013-01-22 11:53:00,
2013-01-22 06:03:00,16.0,9.0,30.30,SE,129,1.0,1.0,75,0.00,,,0.00,,2013-01-22 12:03:00,
2013-01-22 06:12:00,16.0,9.0,30.30,SE,129,1.0,1.0,75,0.00,,,0.00,,2013-01-22 12:12:00,
2013-01-22 06:23:00,16.0,9.0,30.29,SE,129,1.0,1.0,75,0.00,,,0.00,,2013-01-22 12:23:00,
2013-01-22 06:33:00,16.0,9.0,30.29,SE,129,1.0,1.0,75,0.00,,,0.00,,2013-01-22 12:33:00,
2013-01-22 06:43:00,16.0,9.0,30.29,SE,129,1.0,1.0,75,0.00,,,0.00,,2013-01-22 12:43:00,
2013-01-22 06:53:00,16.0,9.0,30.29,SE,129,1.0,1.0,75,0.00,,,0.00,,2013-01-22 12:53:00,
2013-01-22 07:03:00,16.0,9.0,30.27,SE,129,1.0,1.0,75,0.00,,,0.00,,2013-01-22 13:03:00,
2013-01-22 07:13:00,16.0,9.0,30.27,SE,129,1.0,1.0,75,0.00,,,0.00,,2013-01-22 13:13:00,
2013-01-22 07:23:00,16.0,9.0,30.27,SE,129,1.0,1.0,75,0.00,,,0.00,,2013-01-22 13:23:00,
2013-01-22 07:33:00,16.0,9.0,30.29,SE,129,1.0,1.0,75,0.00,,,0.00,,2013-01-22 13:33:00,
2013-01-22 07:43:00,16.0,9.0,30.29,SE,129,1.0,1.0,75,0.00,,,0.00,,2013-01-22 13:43:00,
2013-01-22 07:53:00,16.0,9.0,30.31,SE,129,1.0,1.0,75,0.00,,,0.00,,2013-01-22 13:53:00,
2013-01-22 08:03:00,16.0,9.0,30.31,SE,129,1.0,1.0,75,0.00,,,0.00,,2013-01-22 14:03:00,
2013-01-22 08:13:00,16.0,9.0,30.31,SE,129,1.0,1.0,75,0.00,,,0.00,,2013-01-22 14:13:00,
2013-01-22 08:23:00,16.0,9.0,30.32,SE,129,1.0,1.0,75,0.00,,,0.00,,2013-01-22 14:23:00,
2013-01-22 08:33:00,16.0,9.0,30.32,SE,129,1.0,1.0,75,0.00,,,0.00,,2013-01-22 14:33:00,
2013-01-22 08:43:00,16.0,9.0,30.32,SE,129,1.0,1.0,75,0.00,,,0.00,,2013-01-22 14:43:00,
2013-01-22 08:54:00,16.0,10.0,30.33,East,96,1.0,10.0,76,0.00,,,0.00,,2013-01-22 14:54:00,
2013-01-22 09:03:00,16.0,9.0,30.33,East,97,0.0,6.0,75,0.00,,,0.00,,2013-01-22 15:03:00,
2013-01-22 09:13:00,16.0,9.0,30.33,East,97,0.0,6.0,75,0.00,,,0.00,,2013-01-22 15:13:00,
2013-01-22 09:23:00,17.0,10.0,30.33,ESE,113,2.0,9.0,74,0.00,,,0.00,,2013-01-22 15:23:00,
2013-01-22 09:33:00,18.0,11.0,30.33,East,92,4.0,14.0,73,0.00,,,0.00,,2013-01-22 15:33:00,
2013-01-22 09:43:00,18.0,11.0,30.33,East,92,4.0,14.0,73,0.00,,,0.00,,2013-01-22 15:43:00,
2013-01-22 09:53:00,18.0,11.0,30.32,ENE,78,6.0,9.0,72,0.00,,,0.00,,2013-01-22 15:53:00,
2013-01-22 10:03:00,19.0,11.0,30.32,SE,142,3.0,13.0,71,0.00,,,0.00,,2013-01-22 16:03:00,
2013-01-22 10:13:00,19.0,11.0,30.32,SE,142,3.0,13.0,71,0.00,,,0.00,,2013-01-22 16:13:00,
2013-01-22 10:23:00,19.0,11.0,30.32,South,169,4.0,12.0,71,0.00,,,0.00,,2013-01-22 16:23:00,
2013-01-22 10:33:00,20.0,11.0,30.33,ENE,77,5.0,11.0,69,0.00,,,0.00,,2013-01-22 16:33:00,
2013-01-22 10:43:00,20.0,11.0,30.33,ENE,77,5.0,11.0,69,0.00,,,0.00,,2013-01-22 16:43:00,
2013-01-22 10:54:00,22.0,13.0,30.33,ENE,76,8.0,10.0,67,0.00,,,0.00,,2013-01-22 16:54:00,
2013-01-22 11:03:00,22.0,12.0,30.34,SSE,163,1.0,10.0,64,0.00,,,0.00,,2013-01-22 17:03:00,
2013-01-22 11:13:00,22.0,12.0,30.34,SSE,163,1.0,10.0,64,0.00,,,0.00,,2013-01-22 17:13:00,
2013-01-22 11:23:00,23.0,12.0,30.35,ESE,110,4.0,9.0,63,0.00,,,0.00,,2013-01-22 17:23:00,
2013-01-22 11:34:00,24.0,13.0,30.34,SSE,148,3.0,8.0,61,0.00,,,0.00,,2013-01-22 17:34:00,
2013-01-22 11:43:00,24.0,13.0,30.34,SSE,148,3.0,8.0,61,0.00,,,0.00,,2013-01-22 17:43:00,
2013-01-22 11:53:00,25.0,13.0,30.34,SSE,166,4.0,9.0,59,0.00,,,0.00,,2013-01-22 17:53:00,
2013-01-22 12:03:00,27.0,14.0,30.33,SE,146,2.0,7.0,58,0.00,,,0.00,,2013-01-22 18:03:00,
2013-01-22 12:13:00,27.0,14.0,30.33,SE,146,2.0,7.0,58,0.00,,,0.00,,2013-01-22 18:13:00,
2013-01-22 12:23:00,27.0,14.0,30.33,SE,146,2.0,7.0,58,0.00,,,0.00,,2013-01-22 18:23:00,
2013-01-22 12:33:00,29.0,15.0,30.32,South,187,1.0,8.0,55,0.00,,,0.00,,2013-01-22 18:33:00,
2013-01-22 12:43:00,29.0,15.0,30.32,South,187,1.0,8.0,55,0.00,,,0.00,,2013-01-22 18:43:00,
2013-01-22 12:54:00,30.0,15.0,30.30,East,83,6.0,8.0,54,0.00,,,0.00,,2013-01-22 18:54:00,
2013-01-22 13:03:00,30.0,15.0,30.29,SE,131,4.0,8.0,53,0.00,,,0.00,,2013-01-22 19:03:00,
2013-01-22 13:13:00,30.0,15.0,30.29,SE,131,4.0,8.0,53,0.00,,,0.00,,2013-01-22 19:13:00,
2013-01-22 13:23:00,31.0,15.0,30.27,ESE,110,7.0,8.0,51,0.00,,,0.00,,2013-01-22 19:23:00,
2013-01-22 13:33:00,32.0,16.0,30.27,ESE,103,4.0,10.0,51,0.00,,,0.00,,2013-01-22 19:33:00,
2013-01-22 13:43:00,32.0,16.0,30.27,ESE,103,4.0,10.0,51,0.00,,,0.00,,2013-01-22 19:43:00,
2013-01-22 13:54:00,33.0,16.0,30.27,South,176,4.0,8.0,49,0.00,,,0.00,,2013-01-22 19:54:00,
2013-01-22 14:03:00,34.0,17.0,30.27,WSW,248,4.0,8.0,49,0.00,,,0.00,,2013-01-22 20:03:00,
2013-01-22 14:12:00,34.0,17.0,30.27,WSW,248,4.0,8.0,49,0.00,,,0.00,,2013-01-22 20:12:00,
2013-01-22 14:23:00,35.0,17.0,30.26,WSW,239,0.0,6.0,47,0.00,,,0.00,,2013-01-22 20:23:00,
2013-01-22 14:33:00,36.0,17.0,30.27,West,270,0.0,4.0,46,0.00,,,0.00,,2013-01-22 20:33:00,
2013-01-22 14:43:00,36.0,17.0,30.27,West,270,0.0,4.0,46,0.00,,,0.00,,2013-01-22 20:43:00,
2013-01-22 14:53:00,36.0,17.0,30.27,WSW,248,0.0,3.0,45,0.00,,,0.00,,2013-01-22 20:53:00,
2013-01-22 15:03:00,37.0,18.0,30.26,NW,316,0.0,3.0,45,0.00,,,0.00,,2013-01-22 21:03:00,
2013-01-22 15:23:00,37.0,17.0,30.25,SW,229,1.0,5.0,44,0.00,,,0.00,,2013-01-22 21:23:00,
2013-01-22 15:33:00,37.0,17.0,30.24,SE,142,0.0,3.0,44,0.00,,,0.00,,2013-01-22 21:33:00,
2013-01-22 15:43:00,37.0,17.0,30.24,SE,142,0.0,3.0,44,0.00,,,0.00,,2013-01-22 21:43:00,
2013-01-22 15:53:00,37.0,17.0,30.24,South,169,0.0,2.0,44,0.00,,,0.00,,2013-01-22 21:53:00,
2013-01-22 16:03:00,38.0,18.0,30.24,SE,136,0.0,5.0,44,0.00,,,0.00,,2013-01-22 22:03:00,
2013-01-22 16:12:00,38.0,18.0,30.24,SE,136,0.0,5.0,44,0.00,,,0.00,,2013-01-22 22:12:00,
2013-01-22 16:22:00,38.0,18.0,30.25,ENE,64,4.0,4.0,44,0.00,,,0.00,,2013-01-22 22:22:00,
2013-01-22 16:32:00,38.0,18.0,30.25,ENE,64,4.0,4.0,44,0.00,,,0.00,,2013-01-22 22:32:00,
2013-01-22 16:43:00,38.0,18.0,30.25,SSE,151,0.0,4.0,44,0.00,,,0.00,,2013-01-22 22:43:00,
2013-01-22 16:53:00,38.0,18.0,30.26,West,276,0.0,2.0,43,0.00,,,0.00,,2013-01-22 22:53:00,
2013-01-22 17:02:00,37.0,17.0,30.25,NW,314,0.0,1.0,44,0.00,,,0.00,,2013-01-22 23:02:00,
2013-01-22 17:12:00,37.0,17.0,30.25,NW,314,0.0,1.0,44,0.00,,,0.00,,2013-01-22 23:12:00,
2013-01-22 17:23:00,36.0,17.0,30.25,NW,316,0.0,1.0,46,0.00,,,0.00,,2013-01-22 23:23:00,
2013-01-22 17:33:00,36.0,17.0,30.25,WNW,301,0.0,0.0,46,0.00,,,0.00,,2013-01-22 23:33:00,
2013-01-22 17:43:00,36.0,17.0,30.25,WNW,301,0.0,0.0,46,0.00,,,0.00,,2013-01-22 23:43:00,
2013-01-22 17:53:00,36.0,18.0,30.24,NW,304,0.0,0.0,47,0.00,,,0.00,,2013-01-22 23:53:00,
2013-01-22 18:03:00,35.0,18.0,30.24,NW,304,0.0,0.0,49,0.00,,,0.00,,2013-01-23 00:03:00,
2013-01-22 18:12:00,35.0,18.0,30.24,NW,304,0.0,0.0,49,0.00,,,0.00,,2013-01-23 00:12:00,
2013-01-22 18:22:00,33.0,17.0,30.24,NNW,337,0.0,1.0,51,0.00,,,0.00,,2013-01-23 00:22:00,
2013-01-22 18:33:00,33.0,17.0,30.25,NNW,337,0.0,0.0,52,0.00,,,0.00,,2013-01-23 00:33:00,
2013-01-22 18:43:00,33.0,17.0,30.25,NNW,337,0.0,0.0,52,0.00,,,0.00,,2013-01-23 00:43:00,
2013-01-22 18:52:00,32.0,17.0,30.26,NNW,337,0.0,0.0,53,0.00,,,0.00,,2013-01-23 00:52:00,
2013-01-22 19:03:00,31.0,17.0,30.26,NNW,337,0.0,0.0,55,0.00,,,0.00,,2013-01-23 01:03:00,
2013-01-22 19:13:00,31.0,17.0,30.26,NNW,337,0.0,0.0,55,0.00,,,0.00,,2013-01-23 01:13:00,
2013-01-22 19:22:00,31.0,17.0,30.25,NNW,340,0.0,1.0,56,0.00,,,0.00,,2013-01-23 01:22:00,
2013-01-22 19:33:00,31.0,17.0,30.26,NNW,337,0.0,1.0,56,0.00,,,0.00,,2013-01-23 01:33:00,
2013-01-22 19:43:00,31.0,17.0,30.26,NNW,337,0.0,1.0,56,0.00,,,0.00,,2013-01-23 01:43:00,
2013-01-22 19:53:00,30.0,17.0,30.27,NW,319,0.0,0.0,58,0.00,,,0.00,,2013-01-23 01:53:00,
2013-01-22 20:03:00,30.0,17.0,30.26,NNW,345,0.0,1.0,59,0.00,,,0.00,,2013-01-23 02:03:00,
2013-01-22 20:12:00,30.0,17.0,30.26,NNW,345,0.0,1.0,59,0.00,,,0.00,,2013-01-23 02:12:00,
2013-01-22 20:23:00,29.0,16.0,30.27,North,354,0.0,1.0,59,0.00,,,0.00,,2013-01-23 02:23:00,
2013-01-22 20:33:00,29.0,17.0,30.27,ENE,71,1.0,2.0,60,0.00,,,0.00,,2013-01-23 02:33:00,
2013-01-22 20:42:00,29.0,17.0,30.27,ENE,71,1.0,2.0,60,0.00,,,0.00,,2013-01-23 02:42:00,
2013-01-22 20:53:00,28.0,16.0,30.27,ENE,71,0.0,1.0,61,0.00,,,0.00,,2013-01-23 02:53:00,
2013-01-22 21:03:00,28.0,17.0,30.27,ENE,71,0.0,1.0,62,0.00,,,0.00,,2013-01-23 03:03:00,
2013-01-22 21:12:00,28.0,17.0,30.27,ENE,71,0.0,1.0,62,0.00,,,0.00,,2013-01-23 03:12:00,
2013-01-22 21:23:00,28.0,17.0,30.27,East,101,0.0,1.0,62,0.00,,,0.00,,2013-01-23 03:23:00,
2013-01-22 21:32:00,28.0,17.0,30.27,ENE,64,0.0,2.0,63,0.00,,,0.00,,2013-01-23 03:32:00,
2013-01-22 21:42:00,28.0,17.0,30.27,ENE,64,0.0,2.0,63,0.00,,,0.00,,2013-01-23 03:42:00,
2013-01-22 21:53:00,27.0,17.0,30.28,ENE,63,0.0,1.0,65,0.00,,,0.00,,2013-01-23 03:53:00,
2013-01-22 22:03:00,26.0,17.0,30.29,NW,309,0.0,0.0,68,0.00,,,0.00,,2013-01-23 04:03:00,
2013-01-22 22:12:00,26.0,17.0,30.29,NW,309,0.0,0.0,68,0.00,,,0.00,,2013-01-23 04:12:00,
2013-01-22 22:22:00,25.0,16.0,30.29,NW,309,0.0,0.0,68,0.00,,,0.00,,2013-01-23 04:22:00,
2013-01-22 22:32:00,24.0,16.0,30.29,NW,309,0.0,0.0,70,0.00,,,0.00,,2013-01-23 04:32:00,
2013-01-22 22:43:00,24.0,16.0,30.29,NW,309,0.0,0.0,70,0.00,,,0.00,,2013-01-23 04:43:00,
2013-01-22 22:53:00,25.0,17.0,30.29,NW,309,0.0,0.0,70,0.00,,,0.00,,2013-01-23 04:53:00,
2013-01-22 23:03:00,24.0,16.0,30.28,NW,309,0.0,0.0,72,0.00,,,0.00,,2013-01-23 05:03:00,
2013-01-22 23:12:00,24.0,16.0,30.28,NW,309,0.0,0.0,72,0.00,,,0.00,,2013-01-23 05:12:00,
2013-01-22 23:22:00,24.0,17.0,30.28,NW,309,0.0,0.0,73,0.00,,,0.00,,2013-01-23 05:22:00,
2013-01-22 23:33:00,23.0,16.0,30.28,NW,309,0.0,0.0,74,0.00,,,0.00,,2013-01-23 05:33:00,
2013-01-22 23:43:00,23.0,16.0,30.28,NW,309,0.0,0.0,74,0.00,,,0.00,,2013-01-23 05:43:00,
2013-01-22 23:53:00,23.0,16.0,30.28,NW,309,0.0,0.0,75,0.00,,,0.00,,2013-01-23 05:53:00,